Time;durP1;ratioP1;P1;durP2;ratioP2;P2;SDS_P1;SDS_P2;PMS_P1;PMS_P2;Temp;Humidity;BMP_temperature;BMP_pressure;BME280_temperature;BME280_humidity;BME280_pressure;Samples;Min_cycle;Max_cycle;Signal;HPM_P1;HPM_P2
2023/08/07 00:00:24;;;;;;;8.93;4.47;;;;;;;;;;6280892;22;20039;-85
2023/08/07 00:02:54;;;;;;;9.13;4.60;;;;;;;;;;6284482;22;20032;-85
2023/08/07 00:05:24;;;;;;;7.20;4.53;;;;;;;;;;6289434;22;20047;-85
2023/08/07 00:07:51;;;;;;;7.57;4.53;;;;;;;;;;6284778;22;20106;-85
2023/08/07 00:10:18;;;;;;;7.55;4.63;;;;;;;;;;6284761;22;20040;-86
2023/08/07 00:12:45;;;;;;;9.20;4.50;;;;;;;;;;6286548;22;20023;-86
2023/08/07 00:15:15;;;;;;;11.43;5.57;;;;;;;;;;6286959;22;20047;-85
2023/08/07 00:17:42;;;;;;;9.80;6.07;;;;;;;;;;6285070;22;20081;-85
2023/08/07 00:20:10;;;;;;;13.50;5.70;;;;;;;;;;6282806;22;20024;-85
2023/08/07 00:22:37;;;;;;;9.35;5.07;;;;;;;;;;6284504;22;20344;-85
2023/08/07 00:25:04;;;;;;;13.15;5.47;;;;;;;;;;6293970;22;20027;-85
2023/08/07 00:27:31;;;;;;;8.20;4.97;;;;;;;;;;6285962;22;20037;-85
2023/08/07 00:30:26;;;;;;;11.05;5.90;;;;;;;;;;6291779;22;20024;-85
2023/08/07 00:32:53;;;;;;;10.60;5.32;;;;;;;;;;6293534;22;20019;-85
2023/08/07 00:35:20;;;;;;;12.85;6.10;;;;;;;;;;6292982;22;20023;-85
2023/08/07 00:37:47;;;;;;;10.27;5.68;;;;;;;;;;6291793;22;20024;-86
2023/08/07 00:40:17;;;;;;;9.98;5.95;;;;;;;;;;6291905;22;20024;-85
2023/08/07 00:42:44;;;;;;;12.63;6.32;;;;;;;;;;6293599;22;20023;-86
2023/08/07 00:45:11;;;;;;;15.57;5.93;;;;;;;;;;6293461;22;20018;-85
2023/08/07 00:47:41;;;;;;;15.18;7.20;;;;;;;;;;6294463;22;20024;-85
2023/08/07 00:50:08;;;;;;;9.90;6.15;;;;;;;;;;6294060;22;20023;-85
2023/08/07 00:52:38;;;;;;;14.80;6.47;;;;;;;;;;6292694;22;20344;-85
2023/08/07 00:55:05;;;;;;;14.25;6.35;;;;;;;;;;6290275;22;20075;-86
2023/08/07 00:57:32;;;;;;;16.95;6.90;;;;;;;;;;6294548;22;20030;-86
2023/08/07 00:59:59;;;;;;;14.75;6.38;;;;;;;;;;6293657;22;20396;-85
2023/08/07 01:02:29;;;;;;;11.68;6.78;;;;;;;;;;6294308;22;20027;-85
2023/08/07 01:04:59;;;;;;;14.50;7.40;;;;;;;;;;6292920;22;20051;-85
2023/08/07 01:07:26;;;;;;;11.48;5.97;;;;;;;;;;6292488;22;20024;-85
2023/08/07 01:09:57;;;;;;;13.90;6.15;;;;;;;;;;6293218;22;20067;-86
2023/08/07 01:12:35;;;;;;;15.43;6.90;;;;;;;;;;6292074;22;20007;-86
2023/08/07 01:15:13;;;;;;;11.10;6.38;;;;;;;;;;6293347;22;20020;-85
2023/08/07 01:17:41;;;;;;;10.75;6.15;;;;;;;;;;6294053;22;20059;-85
2023/08/07 01:20:11;;;;;;;13.80;6.45;;;;;;;;;;6291950;22;20023;-86
2023/08/07 01:22:38;;;;;;;10.27;6.53;;;;;;;;;;6289715;22;20046;-85
2023/08/07 01:25:06;;;;;;;12.68;6.53;;;;;;;;;;6292969;22;20019;-85
2023/08/07 01:27:53;;;;;;;13.48;7.05;;;;;;;;;;6293251;22;20112;-85
2023/08/07 01:30:19;;;;;;;15.20;7.15;;;;;;;;;;6293161;22;20063;-86
2023/08/07 01:32:50;;;;;;;11.68;7.80;;;;;;;;;;6292964;22;20024;-85
2023/08/07 01:35:17;;;;;;;10.73;6.20;;;;;;;;;;6293203;22;20324;-85
2023/08/07 01:38:00;;;;;;;9.60;6.15;;;;;;;;;;6294379;22;20019;-86
2023/08/07 01:40:28;;;;;;;13.60;7.10;;;;;;;;;;6293219;22;20008;-85
2023/08/07 01:42:57;;;;;;;17.70;7.03;;;;;;;;;;6294164;22;20034;-85
2023/08/07 01:45:26;;;;;;;11.82;6.57;;;;;;;;;;6294697;22;20225;-86
2023/08/07 01:47:53;;;;;;;12.70;6.63;;;;;;;;;;6294595;22;20026;-85
2023/08/07 01:50:21;;;;;;;13.50;7.28;;;;;;;;;;6267488;22;20019;-86
2023/08/07 01:52:57;;;;;;;17.80;7.53;;;;;;;;;;6292806;22;20043;-86
2023/08/07 01:55:24;;;;;;;15.13;6.38;;;;;;;;;;6264959;22;20007;-85
2023/08/07 01:57:53;;;;;;;15.50;6.68;;;;;;;;;;6264269;22;20089;-85
2023/08/07 02:00:21;;;;;;;15.35;8.00;;;;;;;;;;6292009;22;20023;-85
2023/08/07 02:02:48;;;;;;;11.75;6.57;;;;;;;;;;6269803;22;20190;-86
2023/08/07 02:05:16;;;;;;;14.07;7.28;;;;;;;;;;6271086;22;20030;-85
2023/08/07 02:07:44;;;;;;;10.20;6.50;;;;;;;;;;6263829;22;20023;-86
2023/08/07 02:10:11;;;;;;;11.30;7.05;;;;;;;;;;6262738;22;20041;-86
2023/08/07 02:12:37;;;;;;;17.02;7.43;;;;;;;;;;6263591;22;20023;-86
2023/08/07 02:15:05;;;;;;;13.60;7.28;;;;;;;;;;6263281;22;20024;-85
2023/08/07 02:17:32;;;;;;;16.75;7.85;;;;;;;;;;6287271;22;20032;-86
2023/08/07 02:20:02;;;;;;;9.60;6.60;;;;;;;;;;6258973;22;20031;-85
2023/08/07 02:22:29;;;;;;;14.65;7.45;;;;;;;;;;6291379;22;20028;-86
2023/08/07 02:24:56;;;;;;;13.65;7.50;;;;;;;;;;6287104;22;20028;-86
2023/08/07 02:27:22;;;;;;;12.82;7.32;;;;;;;;;;6260637;22;20044;-85
2023/08/07 02:29:53;;;;;;;14.00;7.22;;;;;;;;;;6286933;22;20024;-85
2023/08/07 02:32:20;;;;;;;15.82;8.00;;;;;;;;;;6260765;22;20174;-86
2023/08/07 02:34:50;;;;;;;11.18;6.82;;;;;;;;;;6287628;22;20020;-86
2023/08/07 02:37:17;;;;;;;13.93;6.93;;;;;;;;;;6261488;22;20031;-86
2023/08/07 02:39:46;;;;;;;15.43;6.43;;;;;;;;;;6288468;22;20045;-85
2023/08/07 02:42:13;;;;;;;13.48;7.03;;;;;;;;;;6287861;22;20028;-86
2023/08/07 02:44:45;;;;;;;14.13;7.45;;;;;;;;;;6287390;22;20153;-86
2023/08/07 02:47:11;;;;;;;19.60;7.65;;;;;;;;;;6261535;22;20051;-86
2023/08/07 02:49:38;;;;;;;15.18;7.60;;;;;;;;;;6259588;22;20294;-86
2023/08/07 02:52:06;;;;;;;16.17;6.80;;;;;;;;;;6262274;22;20028;-86
2023/08/07 02:54:35;;;;;;;11.02;6.60;;;;;;;;;;6260037;22;20047;-86
2023/08/07 02:57:05;;;;;;;13.93;7.13;;;;;;;;;;6288094;22;20035;-86
2023/08/07 02:59:35;;;;;;;16.48;7.30;;;;;;;;;;6263795;22;20027;-86
2023/08/07 03:02:03;;;;;;;11.52;6.85;;;;;;;;;;6266181;22;20019;-85
2023/08/07 03:04:30;;;;;;;16.65;7.40;;;;;;;;;;6290975;22;20059;-85
2023/08/07 03:06:59;;;;;;;14.90;7.57;;;;;;;;;;6286900;22;20024;-86
2023/08/07 03:09:26;;;;;;;10.85;7.03;;;;;;;;;;6258389;22;20170;-86
2023/08/07 03:11:55;;;;;;;16.55;7.60;;;;;;;;;;6259338;22;20024;-85
2023/08/07 03:14:22;;;;;;;16.45;7.35;;;;;;;;;;6260243;22;20050;-86
2023/08/07 03:16:51;;;;;;;15.55;7.70;;;;;;;;;;6286432;22;20035;-85
2023/08/07 03:19:21;;;;;;;14.13;7.30;;;;;;;;;;6259567;22;20023;-86
2023/08/07 03:21:48;;;;;;;11.73;7.47;;;;;;;;;;6256763;22;20102;-85
2023/08/07 03:24:15;;;;;;;18.92;8.30;;;;;;;;;;6286514;22;20059;-85
2023/08/07 03:26:42;;;;;;;17.13;7.28;;;;;;;;;;6260741;22;20098;-85
2023/08/07 03:29:09;;;;;;;14.82;7.57;;;;;;;;;;6260859;22;20023;-85
2023/08/07 03:31:37;;;;;;;15.40;8.15;;;;;;;;;;6270306;22;20326;-85
2023/08/07 03:34:23;;;;;;;11.68;6.60;;;;;;;;;;6297131;22;20054;-85
2023/08/07 03:37:08;;;;;;;14.23;7.50;;;;;;;;;;6273267;22;20229;-85
2023/08/07 03:39:50;;;;;;;14.00;6.50;;;;;;;;;;6300474;22;20019;-87
2023/08/07 03:51:29;;;;;;;8.57;4.88;;;;;;;;;;6302637;22;20022;-87
2023/08/07 03:54:31;;;;;;;7.82;5.20;;;;;;;;;;6303253;22;20067;-86
2023/08/07 03:57:12;;;;;;;10.60;5.30;;;;;;;;;;6242377;22;20007;-86
2023/08/07 04:00:26;;;;;;;6.18;4.70;;;;;;;;;;6271860;22;20028;-87
2023/08/07 04:03:07;;;;;;;8.40;4.90;;;;;;;;;;6268952;22;20024;-88
2023/08/07 04:14:10;;;;;;;7.63;4.03;;;;;;;;;;6295182;22;20030;-86
2023/08/07 04:16:59;;;;;;;4.57;3.55;;;;;;;;;;6301856;22;20004;-86
2023/08/07 04:22:56;;;;;;;5.05;2.95;;;;;;;;;;6292899;22;20022;-86
2023/08/07 04:25:49;;;;;;;4.85;2.53;;;;;;;;;;6302281;22;20020;-86
2023/08/07 04:28:42;;;;;;;6.75;3.03;;;;;;;;;;6278918;22;20014;-85
2023/08/07 04:31:35;;;;;;;7.47;3.17;;;;;;;;;;6301866;22;20030;-86
2023/08/07 04:38:02;;;;;;;6.65;3.00;;;;;;;;;;6210614;23;20024;-87
2023/08/07 04:40:46;;;;;;;6.07;2.90;;;;;;;;;;6291319;22;20012;-87
2023/08/07 04:43:31;;;;;;;4.63;2.95;;;;;;;;;;6302720;22;20038;-86
2023/08/07 04:46:15;;;;;;;6.30;2.92;;;;;;;;;;6278029;22;20015;-86
2023/08/07 04:57:17;;;;;;;3.88;2.58;;;;;;;;;;6277327;22;20020;-85
2023/08/07 05:11:08;;;;;;;5.13;3.22;;;;;;;;;;6304328;22;19999;-88
2023/08/07 05:19:13;;;;;;;3.92;2.53;;;;;;;;;;6232196;22;20021;-87
2023/08/07 05:21:58;;;;;;;6.90;2.63;;;;;;;;;;6291770;22;20016;-87
2023/08/07 05:24:41;;;;;;;11.60;2.88;;;;;;;;;;6273807;22;20033;-87
2023/08/07 05:27:22;;;;;;;6.60;2.97;;;;;;;;;;6241596;22;20008;-87
2023/08/07 05:30:22;;;;;;;6.10;2.70;;;;;;;;;;6270645;22;20012;-88
2023/08/07 05:38:39;;;;;;;11.93;3.03;;;;;;;;;;6238574;22;20015;-88
2023/08/07 05:41:23;;;;;;;5.65;2.42;;;;;;;;;;6249072;22;20004;-87
2023/08/07 05:44:11;;;;;;;6.50;2.42;;;;;;;;;;6243776;22;20024;-86
2023/08/07 05:46:57;;;;;;;6.75;2.03;;;;;;;;;;6251854;22;20035;-87
2023/08/07 05:50:05;;;;;;;9.57;2.07;;;;;;;;;;6251925;22;20027;-86
2023/08/07 05:55:42;;;;;;;7.50;2.60;;;;;;;;;;6272704;22;20080;-89
2023/08/07 05:58:37;;;;;;;;;;;;;;;;;;;;;
2023/08/07 06:15:23;;;;;;;3.58;1.58;;;;;;;;;;6304938;22;20023;-88
2023/08/07 06:18:04;;;;;;;5.47;1.90;;;;;;;;;;6302036;22;20019;-88
2023/08/07 06:20:51;;;;;;;6.32;1.70;;;;;;;;;;6302282;22;20022;-88
2023/08/07 06:23:40;;;;;;;9.30;1.48;;;;;;;;;;6263904;22;20016;-87
2023/08/07 06:26:24;;;;;;;3.60;1.60;;;;;;;;;;6272769;22;20005;-88
2023/08/07 06:34:29;;;;;;;6.60;1.65;;;;;;;;;;6271814;22;20134;-87
2023/08/07 06:39:54;;;;;;;4.20;1.27;;;;;;;;;;6242982;22;20104;-88
2023/08/07 06:42:36;;;;;;;5.82;1.77;;;;;;;;;;6238113;22;20024;-88
2023/08/07 06:45:19;;;;;;;7.28;2.30;;;;;;;;;;6268843;22;20013;-88
2023/08/07 06:48:19;;;;;;;11.13;1.55;;;;;;;;;;6270766;22;20023;-88
2023/08/07 06:54:00;;;;;;;7.97;2.20;;;;;;;;;;6250631;22;20020;31
2023/08/07 07:13:52;;;;;;;9.25;2.30;;;;;;;;;;6241775;22;20072;-87
2023/08/07 07:19:25;;;;;;;14.20;2.50;;;;;;;;;;6256988;22;20155;-85
2023/08/07 07:22:16;;;;;;;12.52;3.10;;;;;;;;;;6297369;22;20007;-87
2023/08/07 07:25:00;;;;;;;12.07;2.55;;;;;;;;;;6297439;22;20012;-86
2023/08/07 07:28:06;;;;;;;16.30;3.92;;;;;;;;;;6298734;22;20150;-87
2023/08/07 07:44:09;;;;;;;8.43;2.70;;;;;;;;;;6283249;22;20043;-85
2023/08/07 07:46:55;;;;;;;14.00;3.20;;;;;;;;;;6273819;22;20023;-87
2023/08/07 07:50:30;;;;;;;11.13;3.58;;;;;;;;;;6300700;22;20004;-85
2023/08/07 08:15:21;;;;;;;10.50;1.70;;;;;;;;;;6300807;22;20004;-86
2023/08/07 08:28:58;;;;;;;11.23;1.88;;;;;;;;;;6283320;22;20019;-87
2023/08/07 08:32:18;;;;;;;10.73;2.13;;;;;;;;;;6278603;22;20012;-89
2023/08/07 08:35:17;;;;;;;9.75;2.10;;;;;;;;;;6293022;22;20041;-86
2023/08/07 08:38:03;;;;;;;13.10;2.05;;;;;;;;;;6229312;22;20011;-85
2023/08/07 08:41:10;;;;;;;9.20;1.48;;;;;;;;;;6266721;22;20015;-88
2023/08/07 08:44:03;;;;;;;9.48;1.60;;;;;;;;;;6238269;22;20063;-85
2023/08/07 08:50:32;;;;;;;4.35;1.30;;;;;;;;;;6291369;22;20029;-86
2023/08/07 08:53:32;;;;;;;9.80;1.85;;;;;;;;;;6288541;22;20053;-85
2023/08/07 08:56:18;;;;;;;5.22;1.30;;;;;;;;;;6247964;22;20016;-85
2023/08/07 08:59:25;;;;;;;6.35;1.60;;;;;;;;;;6235270;23;20032;-86
2023/08/07 09:02:31;;;;;;;10.93;1.70;;;;;;;;;;6265606;22;20016;-88
2023/08/07 09:10:56;;;;;;;9.50;1.77;;;;;;;;;;6292226;22;20024;-86
2023/08/07 09:43:12;;;;;;;16.08;1.90;;;;;;;;;;6283960;22;20028;-87
2023/08/07 09:51:21;;;;;;;8.85;2.05;;;;;;;;;;6291000;22;20039;-86
2023/08/07 09:54:05;;;;;;;14.13;2.10;;;;;;;;;;6269799;22;20015;-85
2023/08/07 09:57:13;;;;;;;4.70;1.48;;;;;;;;;;6291071;22;20027;-87
2023/08/07 10:20:50;;;;;;;11.60;1.80;;;;;;;;;;6284887;22;20191;-88
2023/08/07 10:23:47;;;;;;;5.43;1.75;;;;;;;;;;6297130;22;20015;-87
2023/08/07 10:26:30;;;;;;;6.55;2.45;;;;;;;;;;6267626;22;20019;-87
2023/08/07 10:29:42;;;;;;;7.40;1.80;;;;;;;;;;6293931;22;20039;-87
2023/08/07 10:32:52;;;;;;;8.18;2.80;;;;;;;;;;6295850;22;20030;-88
2023/08/07 10:35:51;;;;;;;8.35;2.17;;;;;;;;;;6295117;22;20012;-87
2023/08/07 10:38:49;;;;;;;9.15;2.03;;;;;;;;;;6270924;22;20015;-87
2023/08/07 10:45:05;;;;;;;7.13;1.70;;;;;;;;;;6291646;22;20028;-88
2023/08/07 10:59:23;;;;;;;5.95;1.30;;;;;;;;;;6292438;22;20015;-88
2023/08/07 11:02:36;;;;;;;7.07;1.35;;;;;;;;;;6300169;22;20059;-88
2023/08/07 11:05:24;;;;;;;9.82;1.45;;;;;;;;;;6235471;22;20013;-89
2023/08/07 11:12:02;;;;;;;6.78;1.80;;;;;;;;;;6243501;22;20020;-90
2023/08/07 11:27:06;;;;;;;9.80;2.10;;;;;;;;;;6269678;22;20023;-90
2023/08/07 11:37:50;;;;;;;5.40;1.48;;;;;;;;;;6291769;22;20012;-90
2023/08/07 11:43:37;;;;;;;7.40;2.35;;;;;;;;;;6294976;22;20012;-88
2023/08/07 11:46:45;;;;;;;9.35;2.30;;;;;;;;;;6271912;22;20018;-89
2023/08/07 11:52:26;;;;;;;13.73;1.95;;;;;;;;;;6298705;22;20075;-89
2023/08/07 11:55:10;;;;;;;6.32;1.52;;;;;;;;;;6298759;22;20011;-88
2023/08/07 11:57:54;;;;;;;8.18;1.67;;;;;;;;;;6291956;22;20020;-88
2023/08/07 12:00:41;;;;;;;8.52;1.35;;;;;;;;;;6275136;22;20416;-88
2023/08/07 12:03:29;;;;;;;5.15;1.70;;;;;;;;;;6291026;22;20007;-88
2023/08/07 12:06:35;;;;;;;;;;;;;;;;;;;;;
2023/08/07 12:12:07;;;;;;;7.32;2.33;;;;;;;;;;6265963;22;20024;-88
2023/08/07 12:14:54;;;;;;;8.52;1.33;;;;;;;;;;6272307;22;20019;-88
2023/08/07 12:17:52;;;;;;;7.32;2.03;;;;;;;;;;6272456;22;20015;-88
2023/08/07 12:20:40;;;;;;;7.20;1.80;;;;;;;;;;6299243;22;20016;-89
2023/08/07 12:23:55;;;;;;;7.15;1.42;;;;;;;;;;6275531;22;20016;-88
2023/08/07 12:26:53;;;;;;;6.30;1.70;;;;;;;;;;6226786;22;20004;-89
2023/08/07 12:29:51;;;;;;;8.98;1.88;;;;;;;;;;6239144;22;20029;-90
2023/08/07 12:37:39;;;;;;;7.88;1.60;;;;;;;;;;6270003;22;20064;-88
2023/08/07 12:40:27;;;;;;;5.15;0.98;;;;;;;;;;6223845;23;20024;-88
2023/08/07 12:43:24;;;;;;;8.73;1.65;;;;;;;;;;6246395;22;20008;-89
2023/08/07 12:46:09;;;;;;;5.20;1.27;;;;;;;;;;6248190;22;20007;-89
2023/08/07 12:49:28;;;;;;;;;;;;;;;;;;;;;
2023/08/07 12:52:15;;;;;;;5.70;1.38;;;;;;;;;;6268979;22;20026;-89
2023/08/07 12:57:57;;;;;;;4.78;1.02;;;;;;;;;;6229895;22;20088;-86
2023/08/07 13:00:48;;;;;;;8.07;1.58;;;;;;;;;;6266672;23;20030;-87
2023/08/07 13:03:37;;;;;;;4.47;1.15;;;;;;;;;;6244459;22;20034;-87
2023/08/07 13:06:53;;;;;;;11.15;1.63;;;;;;;;;;6203406;22;20084;-88
2023/08/07 13:12:47;;;;;;;9.82;1.40;;;;;;;;;;6232846;22;20080;-87
2023/08/07 13:19:52;;;;;;;6.95;2.10;;;;;;;;;;6147180;23;20014;-87
2023/08/07 13:25:43;;;;;;;7.22;1.65;;;;;;;;;;6284666;22;20011;-87
2023/08/07 13:39:44;;;;;;;5.32;1.52;;;;;;;;;;6293940;22;20015;-88
2023/08/07 13:42:33;;;;;;;7.13;1.60;;;;;;;;;;6229975;23;20024;-87
2023/08/07 13:45:38;;;;;;;8.00;1.52;;;;;;;;;;6234165;23;20017;-87
2023/08/07 14:14:00;;;;;;;5.18;1.30;;;;;;;;;;6209149;22;20001;-87
2023/08/07 14:31:10;;;;;;;5.47;1.55;;;;;;;;;;6205712;22;20008;-90
2023/08/07 14:34:06;;;;;;;4.40;1.35;;;;;;;;;;6244511;22;20012;-89
2023/08/07 14:37:03;;;;;;;5.65;1.27;;;;;;;;;;6271260;22;20040;-87
2023/08/07 14:40:30;;;;;;;;;;;;;;;;;;;;;
2023/08/07 14:51:22;;;;;;;8.07;1.90;;;;;;;;;;6207981;22;20024;-91
2023/08/07 14:54:41;;;;;;;6.25;1.38;;;;;;;;;;6239669;22;20029;-90
2023/08/07 14:57:49;;;;;;;8.25;1.23;;;;;;;;;;6198114;22;20047;-90
2023/08/07 15:00:38;;;;;;;6.63;1.60;;;;;;;;;;6218595;22;20040;-90
2023/08/07 15:03:21;;;;;;;7.18;1.30;;;;;;;;;;6204465;22;20044;-88
2023/08/07 15:06:12;;;;;;;6.63;1.67;;;;;;;;;;6223753;22;20063;-88
2023/08/07 15:09:31;;;;;;;6.50;1.40;;;;;;;;;;6241841;22;20000;-90
2023/08/07 15:14:59;;;;;;;4.80;1.60;;;;;;;;;;6242792;22;20012;-88
2023/08/07 15:18:13;;;;;;;9.65;1.20;;;;;;;;;;6248190;22;20023;-91
2023/08/07 15:21:34;;;;;;;3.50;1.27;;;;;;;;;;6276951;22;19999;-88
2023/08/07 15:24:21;;;;;;;6.07;1.35;;;;;;;;;;6278609;22;20034;-88
2023/08/07 15:27:06;;;;;;;4.07;1.23;;;;;;;;;;6278817;22;20015;-89
2023/08/07 15:32:30;;;;;;;1.63;1.00;;;;;;;;;;6272153;22;20465;-90
2023/08/07 15:46:22;;;;;;;7.68;2.17;;;;;;;;;;6298279;22;20008;-89
2023/08/07 15:49:13;;;;;;;5.78;2.40;;;;;;;;;;6279989;22;20015;-89
2023/08/07 15:54:42;;;;;;;5.88;2.33;;;;;;;;;;6252950;22;20054;-90
2023/08/07 16:54:42;;;;;;;14.00;2.58;;;;;;;;;;6299976;22;20389;-87
2023/08/07 17:13:14;;;;;;;9.80;2.85;;;;;;;;;;6274503;22;20141;-87
2023/08/07 17:16:28;;;;;;;9.05;2.83;;;;;;;;;;6298242;22;20015;-87
2023/08/07 17:29:58;;;;;;;10.65;2.30;;;;;;;;;;6299611;22;20043;-87
2023/08/07 17:45:56;;;;;;;9.60;2.00;;;;;;;;;;6264426;22;20189;-88
2023/08/07 17:48:58;;;;;;;8.30;1.92;;;;;;;;;;6274288;22;20048;-89
2023/08/07 17:51:43;;;;;;;7.00;2.10;;;;;;;;;;6275988;22;20079;-87
2023/08/07 18:04:47;;;;;;;8.93;1.80;;;;;;;;;;6283062;22;20093;-88
2023/08/07 18:10:11;;;;;;;9.90;1.75;;;;;;;;;;6260969;22;20014;-87
2023/08/07 18:12:55;;;;;;;11.13;1.38;;;;;;;;;;6267069;22;20015;-87
2023/08/07 18:32:05;;;;;;;5.57;1.92;;;;;;;;;;6299858;22;20030;-88
2023/08/07 18:51:12;;;;;;;;;;;;;;;;;;;;;
2023/08/07 18:56:56;;;;;;;4.28;1.38;;;;;;;;;;6293492;22;20007;-88
2023/08/07 19:05:00;;;;;;;8.27;1.85;;;;;;;;;;6284340;22;20026;-87
2023/08/07 19:07:43;;;;;;;10.63;1.75;;;;;;;;;;6275981;22;20030;-88
2023/08/07 19:10:34;;;;;;;5.93;1.60;;;;;;;;;;6276029;22;20022;-88
2023/08/07 19:16:52;;;;;;;4.88;1.50;;;;;;;;;;6240708;23;20023;-89
2023/08/07 19:19:41;;;;;;;10.18;1.77;;;;;;;;;;6218168;23;20072;-89
2023/08/07 19:26:03;;;;;;;12.10;2.00;;;;;;;;;;6238671;22;20012;-90
2023/08/07 19:32:05;;;;;;;6.47;1.67;;;;;;;;;;6236957;22;20016;-87
2023/08/07 19:34:50;;;;;;;8.77;2.42;;;;;;;;;;6210146;23;20009;-89
2023/08/07 19:53:13;;;;;;;8.50;1.80;;;;;;;;;;6294343;22;20083;-88
2023/08/07 20:04:58;;;;;;;7.07;1.65;;;;;;;;;;6279803;22;20023;-88
2023/08/07 20:07:49;;;;;;;10.63;1.90;;;;;;;;;;6277021;22;20008;-89
2023/08/07 20:11:06;;;;;;;;;;;;;;;;;;;;;
2023/08/07 20:13:54;;;;;;;5.05;1.65;;;;;;;;;;6290307;22;20011;-88
2023/08/07 20:17:08;;;;;;;5.13;1.85;;;;;;;;;;6252686;22;20083;-87
2023/08/07 20:19:54;;;;;;;5.50;1.67;;;;;;;;;;6270252;22;20016;-87
2023/08/07 20:22:39;;;;;;;9.63;2.28;;;;;;;;;;6243980;22;20063;-86
2023/08/07 20:25:25;;;;;;;7.05;1.70;;;;;;;;;;6273878;22;20222;-88
2023/08/07 20:38:17;;;;;;;6.65;1.65;;;;;;;;;;6302831;22;20003;-89
2023/08/07 20:41:02;;;;;;;8.32;1.92;;;;;;;;;;6302433;22;20023;-89
2023/08/07 20:43:49;;;;;;;11.65;2.08;;;;;;;;;;6278904;22;20000;-88
2023/08/07 20:46:37;;;;;;;8.80;2.30;;;;;;;;;;6301698;22;20289;-88
2023/08/07 20:56:18;;;;;;;;;;;;;;;;;;;;;
2023/08/07 20:59:05;;;;;;;7.30;1.50;;;;;;;;;;6239349;23;20020;-89
2023/08/07 21:01:44;;;;;;;4.50;1.55;;;;;;;;;;6240764;23;20028;-89
2023/08/07 21:04:27;;;;;;;4.47;1.40;;;;;;;;;;6237705;23;20135;-89
2023/08/07 21:07:15;;;;;;;8.43;1.77;;;;;;;;;;6238158;23;20028;-89
2023/08/07 21:10:03;;;;;;;10.57;1.85;;;;;;;;;;6239163;23;20028;-89
2023/08/07 21:16:36;;;;;;;3.20;1.20;;;;;;;;;;6272910;22;20018;-86
2023/08/07 21:19:38;;;;;;;5.15;1.40;;;;;;;;;;6300967;22;20032;-88
2023/08/07 21:32:43;;;;;;;5.45;1.80;;;;;;;;;;6296469;22;20050;-89
2023/08/07 21:35:25;;;;;;;6.95;1.48;;;;;;;;;;6302331;22;20007;-89
2023/08/07 21:38:09;;;;;;;11.40;2.35;;;;;;;;;;6303980;22;20030;-89
2023/08/07 21:40:44;;;;;;;4.53;1.60;;;;;;;;;;6303589;22;20018;-89
2023/08/07 21:46:47;;;;;;;4.57;1.45;;;;;;;;;;6233056;22;20119;-88
2023/08/07 21:49:15;;;;;;;4.15;1.55;;;;;;;;;;6191938;23;20019;-89
2023/08/07 21:51:46;;;;;;;3.03;1.80;;;;;;;;;;6215608;23;20052;-89
2023/08/07 21:54:13;;;;;;;3.67;1.92;;;;;;;;;;6190989;23;20055;-89
2023/08/07 21:56:42;;;;;;;5.32;1.20;;;;;;;;;;6191886;23;20057;-89
2023/08/07 21:59:11;;;;;;;8.80;2.17;;;;;;;;;;6192706;23;20040;-88
2023/08/07 22:01:40;;;;;;;4.75;1.58;;;;;;;;;;6192499;23;20080;-89
2023/08/07 22:04:09;;;;;;;6.85;1.80;;;;;;;;;;6192465;23;20090;-89
2023/08/07 22:06:37;;;;;;;4.55;1.45;;;;;;;;;;6219182;23;20069;-88
2023/08/07 22:09:04;;;;;;;4.15;1.60;;;;;;;;;;6218127;23;20024;-89
2023/08/07 22:11:35;;;;;;;4.25;1.85;;;;;;;;;;6222237;23;20047;-88
2023/08/07 22:14:04;;;;;;;4.88;2.08;;;;;;;;;;6217807;22;20047;-89
2023/08/07 22:16:31;;;;;;;5.70;1.60;;;;;;;;;;6280977;22;20254;-89
2023/08/07 22:19:00;;;;;;;5.30;1.85;;;;;;;;;;6281160;22;20063;-89
2023/08/07 22:21:30;;;;;;;7.07;1.73;;;;;;;;;;6279705;22;20019;-89
2023/08/07 22:24:00;;;;;;;4.03;1.70;;;;;;;;;;6282241;22;20024;-89
2023/08/07 22:26:30;;;;;;;5.03;1.75;;;;;;;;;;6283914;22;20020;-89
2023/08/07 22:28:57;;;;;;;4.78;2.00;;;;;;;;;;6285353;22;20024;-89
2023/08/07 22:31:25;;;;;;;3.75;1.55;;;;;;;;;;6286820;22;20073;-89
2023/08/07 22:33:56;;;;;;;5.38;1.48;;;;;;;;;;6291991;22;20139;-89
2023/08/07 22:36:27;;;;;;;9.82;1.88;;;;;;;;;;6286454;22;20073;-89
2023/08/07 22:38:55;;;;;;;5.43;1.88;;;;;;;;;;6284293;22;20039;-89
2023/08/07 22:41:22;;;;;;;7.47;1.95;;;;;;;;;;6284634;22;20023;-89
2023/08/07 22:43:50;;;;;;;6.03;1.73;;;;;;;;;;6283281;22;20028;-89
2023/08/07 22:46:19;;;;;;;5.72;1.20;;;;;;;;;;6281826;22;20023;-89
2023/08/07 22:48:47;;;;;;;6.68;1.50;;;;;;;;;;6282172;22;20202;-89
2023/08/07 22:51:14;;;;;;;7.45;1.95;;;;;;;;;;6284853;22;20023;-89
2023/08/07 22:53:47;;;;;;;9.38;2.30;;;;;;;;;;6284527;22;20241;-89
2023/08/07 22:56:15;;;;;;;5.95;1.63;;;;;;;;;;6284913;22;20012;-90
2023/08/07 22:58:43;;;;;;;10.10;2.30;;;;;;;;;;6285945;22;20024;-89
2023/08/07 23:01:11;;;;;;;9.35;1.92;;;;;;;;;;6286952;22;20028;-89
2023/08/07 23:03:41;;;;;;;5.00;2.05;;;;;;;;;;6286592;22;20028;-89
2023/08/07 23:06:09;;;;;;;3.92;2.13;;;;;;;;;;6286488;22;20027;-90
2023/08/07 23:08:40;;;;;;;8.48;2.25;;;;;;;;;;6286823;22;20358;-89
2023/08/07 23:11:08;;;;;;;5.50;1.90;;;;;;;;;;6285976;22;20038;-89
2023/08/07 23:13:36;;;;;;;7.43;1.92;;;;;;;;;;6285131;22;20028;-89
2023/08/07 23:16:04;;;;;;;5.07;2.15;;;;;;;;;;6284512;22;20024;-88
2023/08/07 23:18:31;;;;;;;7.53;2.13;;;;;;;;;;6286969;22;20024;-89
2023/08/07 23:21:12;;;;;;;8.40;2.55;;;;;;;;;;6290071;22;20019;-89
2023/08/07 23:23:52;;;;;;;8.40;2.50;;;;;;;;;;6302882;22;20036;-88
2023/08/07 23:26:33;;;;;;;3.97;2.05;;;;;;;;;;6294473;22;20358;-88
2023/08/07 23:29:02;;;;;;;6.00;2.20;;;;;;;;;;6286785;22;20051;-89
2023/08/07 23:31:30;;;;;;;5.32;2.40;;;;;;;;;;6285672;22;20020;-89
2023/08/07 23:34:04;;;;;;;5.72;2.30;;;;;;;;;;6285216;22;20031;-89
2023/08/07 23:36:31;;;;;;;7.22;2.70;;;;;;;;;;6284835;22;20032;-89
2023/08/07 23:39:01;;;;;;;8.15;2.00;;;;;;;;;;6284383;22;20091;-89
2023/08/07 23:41:29;;;;;;;6.13;2.40;;;;;;;;;;6285041;22;20073;-89
2023/08/07 23:43:56;;;;;;;6.47;2.53;;;;;;;;;;6285631;22;20019;-89
2023/08/07 23:46:33;;;;;;;7.18;2.40;;;;;;;;;;6285545;22;20106;-89
2023/08/07 23:49:00;;;;;;;5.80;2.15;;;;;;;;;;6285906;22;20031;-89
2023/08/07 23:51:28;;;;;;;5.18;1.98;;;;;;;;;;6297979;22;20015;-88
2023/08/07 23:53:55;;;;;;;3.55;1.90;;;;;;;;;;6297735;22;20023;-89
2023/08/07 23:56:25;;;;;;;4.63;2.17;;;;;;;;;;6287615;22;20028;-89
2023/08/07 23:58:52;;;;;;;4.00;1.90;;;;;;;;;;6288087;22;20039;-89
